createdAt,value
2022-08-04T00:01:50.419Z,100207.50
2022-08-04T00:04:01.203Z,100201.53
2022-08-04T00:06:08.201Z,100207.50
2022-08-04T00:08:23.071Z,100211.78
2022-08-04T00:10:29.231Z,100200.84
2022-08-04T00:12:39.703Z,100195.63
2022-08-04T00:14:49.568Z,100201.13
2022-08-04T00:16:54.442Z,100198.56
2022-08-04T00:19:03.107Z,100198.88
2022-08-04T00:21:07.694Z,100198.09
2022-08-04T00:23:13.302Z,100201.44
2022-08-04T00:25:16.382Z,100195.38
2022-08-04T00:27:20.245Z,100200.84
2022-08-04T00:29:24.727Z,100197.69
2022-08-04T00:31:54.405Z,100200.09
2022-08-04T00:33:52.933Z,100194.41
2022-08-04T00:35:56.956Z,100201.19
2022-08-04T00:38:00.537Z,100204.75
2022-08-04T00:40:14.603Z,100199.22
2022-08-04T00:42:49.304Z,100203.94
2022-08-04T00:45:35.784Z,100201.38
2022-08-04T00:48:11.112Z,100204.22
2022-08-04T00:50:21.585Z,100198.72
2022-08-04T00:52:34.619Z,100200.63
2022-08-04T00:54:48.044Z,100202.13
2022-08-04T00:57:03.937Z,100199.47
2022-08-04T00:59:19.860Z,100196.97
2022-08-04T01:01:42.231Z,100204.88
2022-08-04T01:03:55.465Z,100205.25
2022-08-04T01:06:07.379Z,100208.09
2022-08-04T01:08:42.851Z,100207.25
2022-08-04T01:10:50.534Z,100205.31
2022-08-04T01:13:18.148Z,100204.31
2022-08-04T01:15:53.847Z,100214.59
2022-08-04T01:18:05.259Z,100212.16
2022-08-04T01:20:09.454Z,100227.53
2022-08-04T01:22:29.745Z,100217.53
2022-08-04T01:25:02.474Z,100221.47
2022-08-04T01:27:12.136Z,100216.44
2022-08-04T01:29:19.951Z,100217.19
2022-08-04T01:31:30.927Z,100213.81
2022-08-04T01:34:03.192Z,100208.06
2022-08-04T01:36:06.482Z,100213.31
2022-08-04T01:38:18.381Z,100206.00
2022-08-04T01:40:28.114Z,100206.78
2022-08-04T01:42:33.758Z,100203.09
2022-08-04T01:44:40.329Z,100199.59
2022-08-04T01:46:43.442Z,100206.88
2022-08-04T01:48:48.626Z,100199.72
2022-08-04T01:50:53.988Z,100199.91
2022-08-04T01:52:57.148Z,100198.19
2022-08-04T01:55:02.207Z,100194.56
2022-08-04T01:57:36.818Z,100198.03
2022-08-04T01:59:31.462Z,100195.63
2022-08-04T02:01:38.395Z,100193.88
2022-08-04T02:04:21.025Z,100186.16
2022-08-04T02:06:19.557Z,100186.31
2022-08-04T02:08:31.868Z,100188.19
2022-08-04T02:10:52.655Z,100187.25
2022-08-04T02:13:05.489Z,100185.59
2022-08-04T02:15:14.793Z,100176.03
2022-08-04T02:17:27.032Z,100180.50
2022-08-04T02:19:34.221Z,100182.41
2022-08-04T02:21:42.318Z,100176.28
2022-08-04T02:23:52.488Z,100178.88
2022-08-04T02:25:58.184Z,100172.31
2022-08-04T02:28:21.848Z,100171.47
2022-08-04T02:30:31.878Z,100174.91
2022-08-04T02:32:40.166Z,100171.66
2022-08-04T02:34:49.752Z,100177.91
2022-08-04T02:36:55.420Z,100181.50
2022-08-04T02:39:01.344Z,100181.09
2022-08-04T02:41:06.877Z,100179.59
2022-08-04T02:43:11.030Z,100178.25
2022-08-04T02:45:14.640Z,100175.66
2022-08-04T02:47:21.210Z,100180.09
2022-08-04T02:49:25.598Z,100171.28
2022-08-04T02:51:38.455Z,100170.41
2022-08-04T02:53:42.633Z,100176.50
2022-08-04T02:55:50.653Z,100173.16
2022-08-04T02:57:55.918Z,100171.34
2022-08-04T03:00:08.277Z,100178.50
2022-08-04T03:02:11.095Z,100183.88
2022-08-04T03:04:28.056Z,100182.16
2022-08-04T03:07:21.827Z,100180.44
2022-08-04T03:09:43.576Z,100176.72
2022-08-04T03:12:07.733Z,100179.84
2022-08-04T03:14:30.696Z,100179.59
2022-08-04T03:17:09.632Z,100176.03
2022-08-04T03:19:44.470Z,100181.44
2022-08-04T03:22:23.902Z,100175.38
2022-08-04T03:24:52.018Z,100174.66
2022-08-04T03:27:19.221Z,100186.34
2022-08-04T03:29:55.261Z,100192.69
2022-08-04T03:32:38.481Z,100192.84
2022-08-04T03:35:03.710Z,100191.44
2022-08-04T03:37:27.073Z,100197.44
2022-08-04T03:40:08.921Z,100194.69
2022-08-04T03:42:40.267Z,100200.19
2022-08-04T03:45:24.465Z,100196.03
2022-08-04T03:47:46.549Z,100204.03
2022-08-04T03:50:41.459Z,100201.28
2022-08-04T03:53:22.426Z,100197.78
2022-08-04T03:55:41.015Z,100201.06
2022-08-04T03:58:30.575Z,100194.09
2022-08-04T04:00:47.415Z,100195.03
2022-08-04T04:03:28.564Z,100198.78
2022-08-04T04:06:03.262Z,100203.47
2022-08-04T04:08:21.756Z,100195.66
2022-08-04T04:11:03.922Z,100197.59
2022-08-04T04:13:34.613Z,100193.34
2022-08-04T04:15:59.929Z,100200.16
2022-08-04T04:18:26.105Z,100205.72
2022-08-04T04:20:54.398Z,100213.53
2022-08-04T04:23:06.548Z,100212.47
2022-08-04T04:25:32.057Z,100213.19
2022-08-04T04:27:49.335Z,100211.31
2022-08-04T04:30:08.220Z,100216.78
2022-08-04T04:32:24.484Z,100215.03
2022-08-04T04:34:45.517Z,100213.31
2022-08-04T04:37:02.604Z,100216.94
2022-08-04T04:39:16.641Z,100211.69
2022-08-04T04:41:33.788Z,100212.63
2022-08-04T04:44:10.846Z,100219.97
2022-08-04T04:46:24.683Z,100215.53
2022-08-04T04:48:37.595Z,100216.38
2022-08-04T04:50:56.849Z,100209.19
2022-08-04T04:53:07.930Z,100224.28
2022-08-04T04:55:19.340Z,100221.59
2022-08-04T05:00:10.959Z,100225.28
2022-08-04T05:02:33.508Z,100220.75
2022-08-04T05:05:02.654Z,100216.28
2022-08-04T05:07:22.820Z,100223.75
2022-08-04T05:09:38.922Z,100224.59
2022-08-04T05:12:00.614Z,100220.91
2022-08-04T05:14:37.626Z,100218.94
2022-08-04T05:16:38.652Z,100221.59
2022-08-04T05:18:45.391Z,100225.00
2022-08-04T05:20:54.983Z,100228.41
2022-08-04T05:23:01.008Z,100238.22
2022-08-04T05:25:09.728Z,100231.00
2022-08-04T05:27:18.116Z,100234.34
2022-08-04T05:29:30.971Z,100236.84
2022-08-04T05:31:41.070Z,100235.88
2022-08-04T05:33:49.637Z,100231.44
2022-08-04T05:36:20.673Z,100234.94
2022-08-04T05:38:23.205Z,100238.50
2022-08-04T05:40:26.752Z,100243.81
2022-08-04T05:42:34.454Z,100241.00
2022-08-04T05:44:40.881Z,100232.75
2022-08-04T05:46:54.373Z,100236.19
2022-08-04T05:48:57.815Z,100238.63
2022-08-04T05:51:02.621Z,100236.66
2022-08-04T05:53:06.924Z,100231.03
2022-08-04T05:55:12.579Z,100238.53
2022-08-04T05:57:21.424Z,100245.25
2022-08-04T05:59:26.497Z,100241.34
2022-08-04T06:01:30.634Z,100241.03
2022-08-04T06:03:36.827Z,100239.84
2022-08-04T06:05:43.131Z,100236.16
2022-08-04T06:08:04.626Z,100239.63
2022-08-04T06:10:10.182Z,100242.78
2022-08-04T06:12:16.979Z,100239.88
2022-08-04T06:14:24.230Z,100240.53
2022-08-04T06:16:32.904Z,100237.88
2022-08-04T06:20:03.086Z,100237.44
2022-08-04T06:21:05.664Z,100242.44
2022-08-04T06:23:21.596Z,100243.22
2022-08-04T06:25:29.297Z,100245.72
2022-08-04T06:27:32.934Z,100245.47
2022-08-04T06:29:40.279Z,100242.63
2022-08-04T06:32:27.000Z,100239.13
2022-08-04T06:34:14.002Z,100247.19
2022-08-04T06:36:17.481Z,100256.66
2022-08-04T06:38:21.684Z,100249.19
2022-08-04T06:40:32.533Z,100252.97
2022-08-04T06:42:37.219Z,100255.31
2022-08-04T06:44:41.622Z,100248.91
2022-08-04T06:46:44.773Z,100249.44
2022-08-04T06:48:48.160Z,100250.31
2022-08-04T06:51:32.023Z,100244.81
2022-08-04T06:53:17.575Z,100250.00
2022-08-04T06:55:20.598Z,100251.53
2022-08-04T06:57:27.142Z,100250.16
2022-08-04T06:59:30.671Z,100254.72
2022-08-04T07:01:36.689Z,100252.72
2022-08-04T07:03:41.740Z,100256.84
2022-08-04T07:05:44.955Z,100258.31
2022-08-04T07:07:57.520Z,100261.22
2022-08-04T07:10:02.243Z,100255.25
2022-08-04T07:12:06.579Z,100250.09
2022-08-04T07:14:10.344Z,100255.84
2022-08-04T07:16:15.632Z,100248.22
2022-08-04T07:18:21.028Z,100252.41
2022-08-04T07:20:34.694Z,100244.06
2022-08-04T07:22:41.410Z,100252.66
2022-08-04T07:24:45.643Z,100253.53
2022-08-04T07:26:51.624Z,100254.66
2022-08-04T07:28:54.445Z,100255.50
2022-08-04T07:30:59.270Z,100250.91
2022-08-04T07:33:02.801Z,100253.00
2022-08-04T07:35:06.900Z,100255.13
2022-08-04T07:37:10.494Z,100253.69
2022-08-04T07:39:27.460Z,100250.84
2022-08-04T07:41:35.559Z,100258.38
2022-08-04T07:43:39.478Z,100252.19
2022-08-04T07:45:42.285Z,100257.91
2022-08-04T07:48:05.234Z,100258.41
2022-08-04T07:50:12.371Z,100252.03
2022-08-04T07:52:16.426Z,100259.19
2022-08-04T07:54:19.522Z,100264.34
2022-08-04T07:56:22.440Z,100254.13
2022-08-04T07:58:30.092Z,100258.81
2022-08-04T08:00:33.817Z,100258.59
2022-08-04T08:02:38.175Z,100250.97
2022-08-04T08:04:41.501Z,100246.84
2022-08-04T08:06:44.771Z,100253.63
2022-08-04T08:08:47.706Z,100250.94
2022-08-04T08:10:50.635Z,100248.44
2022-08-04T08:12:55.604Z,100249.47
2022-08-04T08:15:00.533Z,100247.47
2022-08-04T08:17:04.157Z,100253.25
2022-08-04T08:19:07.544Z,100255.66
2022-08-04T08:21:10.442Z,100247.63
2022-08-04T08:23:13.535Z,100247.09
2022-08-04T08:25:16.564Z,100238.25
2022-08-04T08:27:19.962Z,100236.44
2022-08-04T08:29:24.124Z,100238.66
2022-08-04T08:31:57.030Z,100242.53
2022-08-04T08:33:53.601Z,100238.50
2022-08-04T08:36:02.671Z,100240.47
2022-08-04T08:38:07.519Z,100242.94
2022-08-04T08:40:37.842Z,100241.78
2022-08-04T08:44:06.106Z,100239.66
2022-08-04T08:46:33.317Z,100236.22
2022-08-04T08:49:03.050Z,100231.06
2022-08-04T08:51:34.032Z,100244.25
2022-08-04T08:53:54.923Z,100234.84
2022-08-04T08:56:15.189Z,100233.91
2022-08-04T08:58:45.497Z,100241.63
2022-08-04T09:00:55.142Z,100239.69
2022-08-04T09:03:28.466Z,100239.69
2022-08-04T09:06:13.018Z,100238.41
2022-08-04T09:08:31.109Z,100242.25
2022-08-04T09:10:42.716Z,100244.06
2022-08-04T09:12:52.803Z,100248.03
2022-08-04T09:15:01.855Z,100241.56
2022-08-04T09:17:08.187Z,100238.31
2022-08-04T09:19:37.741Z,100237.91
2022-08-04T09:21:49.038Z,100232.81
2022-08-04T09:24:36.806Z,100237.50
2022-08-04T09:26:41.408Z,100242.63
2022-08-04T09:28:54.968Z,100248.72
2022-08-04T09:31:06.922Z,100235.84
2022-08-04T09:33:22.735Z,100244.81
2022-08-04T09:35:58.181Z,100243.59
2022-08-04T09:38:12.071Z,100244.00
2022-08-04T09:40:31.830Z,100241.03
2022-08-04T09:42:53.397Z,100232.75
2022-08-04T09:45:06.058Z,100240.19
2022-08-04T09:47:14.286Z,100240.66
2022-08-04T09:49:20.693Z,100234.38
2022-08-04T09:51:58.110Z,100241.59
2022-08-04T09:54:08.652Z,100241.28
2022-08-04T09:56:40.749Z,100240.56
2022-08-04T09:58:54.957Z,100231.78
2022-08-04T10:01:02.983Z,100236.78
2022-08-04T10:03:06.141Z,100237.25
2022-08-04T10:05:15.740Z,100232.50
2022-08-04T10:07:33.874Z,100232.03
2022-08-04T10:09:53.385Z,100231.28
2022-08-04T10:12:09.186Z,100230.56
2022-08-04T10:14:36.697Z,100228.72
2022-08-04T10:16:48.719Z,100220.59
2022-08-04T10:19:08.439Z,100214.72
2022-08-04T10:21:19.196Z,100217.06
2022-08-04T10:23:56.499Z,100214.84
2022-08-04T10:26:09.384Z,100212.38
2022-08-04T10:28:18.240Z,100210.66
2022-08-04T10:30:22.178Z,100212.94
2022-08-04T10:32:27.294Z,100206.00
2022-08-04T10:34:37.628Z,100205.63
2022-08-04T10:36:52.486Z,100204.63
2022-08-04T10:39:03.228Z,100202.38
2022-08-04T10:41:13.466Z,100203.09
2022-08-04T10:43:27.840Z,100199.75
2022-08-04T10:45:37.664Z,100196.50
2022-08-04T10:47:53.212Z,100200.59
2022-08-04T10:50:00.447Z,100192.16
2022-08-04T10:52:11.973Z,100192.28
2022-08-04T10:54:22.839Z,100193.06
2022-08-04T10:56:33.189Z,100195.75
2022-08-04T10:58:47.688Z,100190.56
2022-08-04T11:00:57.770Z,100186.72
2022-08-04T11:03:08.871Z,100189.97
2022-08-04T11:05:23.265Z,100184.63
2022-08-04T11:07:31.256Z,100181.94
2022-08-04T11:09:35.236Z,100180.06
2022-08-04T11:12:00.542Z,100176.38
2022-08-04T11:14:10.064Z,100173.28
2022-08-04T11:16:27.407Z,100182.00
2022-08-04T11:18:41.794Z,100175.63
2022-08-04T11:20:49.903Z,100169.69
2022-08-04T11:22:59.487Z,100169.53
2022-08-04T11:25:14.260Z,100174.69
2022-08-04T11:27:26.787Z,100174.38
2022-08-04T11:29:42.171Z,100168.84
2022-08-04T11:31:51.832Z,100174.25
2022-08-04T11:34:04.066Z,100172.41
2022-08-04T11:36:15.910Z,100166.84
2022-08-04T11:38:29.164Z,100174.13
2022-08-04T11:40:40.534Z,100158.50
2022-08-04T11:42:53.908Z,100162.47
2022-08-04T11:45:04.459Z,100164.06
2022-08-04T11:47:20.227Z,100159.03
2022-08-04T11:49:30.332Z,100155.78
2022-08-04T11:51:35.834Z,100163.31
2022-08-04T11:53:42.199Z,100164.31
2022-08-04T11:56:06.958Z,100154.75
2022-08-04T11:58:09.411Z,100158.91
2022-08-04T12:00:17.776Z,100161.44
2022-08-04T12:02:41.209Z,100157.91
2022-08-04T12:04:52.138Z,100159.72
2022-08-04T12:07:21.656Z,100156.34
2022-08-04T12:09:32.681Z,100149.50
2022-08-04T12:11:55.841Z,100140.00
2022-08-04T12:14:11.013Z,100144.38
2022-08-04T12:16:18.971Z,100138.84
2022-08-04T12:18:25.689Z,100137.91
2022-08-04T12:20:41.157Z,100134.06
2022-08-04T12:22:48.617Z,100132.91
2022-08-04T12:24:59.190Z,100134.03
2022-08-04T12:27:10.717Z,100135.44
2022-08-04T12:29:17.355Z,100133.84
2022-08-04T12:31:27.331Z,100137.84
2022-08-04T12:33:41.605Z,100140.72
2022-08-04T12:36:11.206Z,100138.97
2022-08-04T12:38:15.434Z,100123.81
2022-08-04T12:40:29.830Z,100129.22
2022-08-04T12:42:55.988Z,100129.69
2022-08-04T12:45:08.035Z,100121.00
2022-08-04T12:47:27.318Z,100124.53
2022-08-04T12:49:33.405Z,100113.97
2022-08-04T12:52:08.438Z,100117.31
2022-08-04T12:54:05.455Z,100113.28
2022-08-04T12:56:11.207Z,100122.41
2022-08-04T12:58:43.041Z,100117.34
2022-08-04T13:00:42.365Z,100109.88
2022-08-04T13:02:49.548Z,100111.78
2022-08-04T13:04:54.212Z,100109.00
2022-08-04T13:07:03.161Z,100107.38
2022-08-04T13:09:09.598Z,100110.94
2022-08-04T13:11:22.036Z,100108.22
2022-08-04T13:13:28.045Z,100101.88
2022-08-04T13:15:33.473Z,100104.28
2022-08-04T13:17:59.863Z,100102.34
2022-08-04T13:20:03.341Z,100091.97
2022-08-04T13:22:06.664Z,100086.50
2022-08-04T13:24:22.702Z,100082.47
2022-08-04T13:26:53.904Z,100077.56
2022-08-04T13:29:02.043Z,100081.00
2022-08-04T13:31:21.790Z,100071.13
2022-08-04T13:33:30.859Z,100075.31
2022-08-04T13:35:54.654Z,100069.44
2022-08-04T13:38:00.336Z,100064.97
2022-08-04T13:40:05.239Z,100075.31
2022-08-04T13:42:12.961Z,100060.88
2022-08-04T13:44:20.983Z,100064.66
2022-08-04T13:46:28.619Z,100065.53
2022-08-04T13:48:35.878Z,100063.81
2022-08-04T13:50:40.142Z,100060.53
2022-08-04T13:52:44.186Z,100055.28
2022-08-04T13:54:48.664Z,100058.47
2022-08-04T13:57:01.420Z,100061.34
2022-08-04T13:59:07.571Z,100051.00
2022-08-04T14:01:20.371Z,100056.59
2022-08-04T14:03:53.937Z,100043.88
2022-08-04T14:06:09.723Z,100044.84
2022-08-04T14:08:20.698Z,100051.72
2022-08-04T14:10:24.736Z,100039.53
2022-08-04T14:12:38.993Z,100046.78
2022-08-04T14:14:52.892Z,100041.16
2022-08-04T14:16:57.934Z,100035.56
2022-08-04T14:19:02.435Z,100035.22
2022-08-04T14:21:07.795Z,100026.72
2022-08-04T14:23:10.597Z,100026.38
2022-08-04T14:25:16.732Z,100028.25
2022-08-04T14:27:19.970Z,100021.16
2022-08-04T14:29:27.282Z,100022.69
2022-08-04T14:31:31.798Z,100014.97
2022-08-04T14:34:02.118Z,100014.97
2022-08-04T14:36:04.668Z,100016.94
2022-08-04T14:38:10.322Z,100010.56
2022-08-04T14:40:30.726Z,100010.31
2022-08-04T14:42:54.695Z,100012.22
2022-08-04T14:45:00.967Z,100013.25
2022-08-04T14:47:03.853Z,100009.69
2022-08-04T14:49:10.458Z,100005.22
2022-08-04T14:51:16.003Z,100006.56
2022-08-04T14:53:21.342Z,100006.25
2022-08-04T14:55:25.815Z,99999.09
2022-08-04T14:57:28.716Z,99997.59
2022-08-04T14:59:59.002Z,99997.97
2022-08-04T15:02:05.850Z,99997.44
2022-08-04T15:04:10.202Z,99999.66
2022-08-04T15:06:17.229Z,99999.47
2022-08-04T15:08:24.463Z,99996.22
2022-08-04T15:10:34.806Z,99991.66
2022-08-04T15:12:37.626Z,99990.81
2022-08-04T15:14:42.234Z,99995.06
2022-08-04T15:16:54.474Z,99985.72
2022-08-04T15:18:59.977Z,99992.00
2022-08-04T15:21:04.753Z,99980.31
2022-08-04T15:23:10.822Z,99987.44
2022-08-04T15:25:16.544Z,99991.50
2022-08-04T15:27:20.846Z,99983.34
2022-08-04T15:29:59.308Z,99981.66
2022-08-04T15:32:05.380Z,99979.31
2022-08-04T15:34:13.627Z,99981.16
2022-08-04T15:36:22.431Z,99969.59
2022-08-04T15:38:30.896Z,99969.44
2022-08-04T15:40:47.010Z,99972.00
2022-08-04T15:43:08.914Z,99970.63
2022-08-04T15:45:22.019Z,99964.38
2022-08-04T15:47:24.858Z,99959.94
2022-08-04T15:49:27.876Z,99966.38
2022-08-04T15:51:33.029Z,99956.38
2022-08-04T15:54:21.097Z,99958.28
2022-08-04T15:56:48.491Z,99963.19
2022-08-04T15:59:04.959Z,99957.91
2022-08-04T16:01:17.973Z,99956.72
2022-08-04T16:03:58.976Z,99954.53
2022-08-04T16:06:42.084Z,99950.78
2022-08-04T16:08:59.452Z,99947.75
2022-08-04T16:11:02.350Z,99940.59
2022-08-04T16:13:09.020Z,99943.31
2022-08-04T16:15:54.640Z,99943.50
2022-08-04T16:17:57.542Z,99943.66
2022-08-04T16:20:12.286Z,99935.34
2022-08-04T16:22:34.824Z,99939.94
2022-08-04T16:24:40.097Z,99934.84
2022-08-04T16:26:46.157Z,99926.69
2022-08-04T16:28:57.982Z,99928.75
2022-08-04T16:31:01.759Z,99930.09
2022-08-04T16:33:09.837Z,99929.91
2022-08-04T16:35:29.920Z,99922.63
2022-08-04T16:37:35.541Z,99923.94
2022-08-04T16:39:50.874Z,99928.69
2022-08-04T16:41:54.933Z,99935.25
2022-08-04T16:44:51.625Z,99925.50
2022-08-04T16:47:08.400Z,99935.28
2022-08-04T16:49:15.410Z,99930.16
2022-08-04T16:51:18.336Z,99928.94
2022-08-04T16:54:03.229Z,99930.28
2022-08-04T16:55:49.717Z,99926.63
2022-08-04T16:57:54.469Z,99926.06
2022-08-04T16:59:59.417Z,99922.69
2022-08-04T17:02:03.081Z,99921.78
2022-08-04T17:04:06.786Z,99922.06
2022-08-04T17:06:13.110Z,99925.75
2022-08-04T17:08:29.638Z,99919.13
2022-08-04T17:10:35.593Z,99927.41
2022-08-04T17:12:38.414Z,99918.44
2022-08-04T17:14:41.317Z,99917.84
2022-08-04T17:16:49.376Z,99922.28
2022-08-04T17:18:54.141Z,99919.03
2022-08-04T17:21:01.998Z,99918.81
2022-08-04T17:24:13.161Z,99923.88
2022-08-04T17:25:54.073Z,99911.09
2022-08-04T17:28:20.488Z,99916.66
2022-08-04T17:30:29.052Z,99910.03
2022-08-04T17:32:34.684Z,99916.06
2022-08-04T17:34:37.576Z,99913.84
2022-08-04T17:36:40.763Z,99913.00
2022-08-04T17:38:48.282Z,99912.44
2022-08-04T17:40:59.928Z,99912.72
2022-08-04T17:44:05.322Z,99903.69
2022-08-04T17:45:53.792Z,99909.72
2022-08-04T17:48:03.590Z,99903.38
2022-08-04T17:50:11.628Z,99906.00
2022-08-04T17:52:39.658Z,99907.78
2022-08-04T17:54:44.367Z,99909.66
2022-08-04T17:56:52.331Z,99909.31
2022-08-04T17:59:16.189Z,99909.47
2022-08-04T18:01:57.713Z,99905.84
2022-08-04T18:04:01.974Z,99908.41
2022-08-04T18:06:12.720Z,99907.88
2022-08-04T18:10:52.482Z,99914.47
2022-08-04T18:13:07.797Z,99910.78
2022-08-04T18:15:25.416Z,99916.22
2022-08-04T18:18:22.020Z,99920.66
2022-08-04T18:20:14.325Z,99925.91
2022-08-04T18:22:27.776Z,99920.25
2022-08-04T18:24:35.811Z,99915.44
2022-08-04T18:26:55.705Z,99924.22
2022-08-04T18:28:59.975Z,99922.13
2022-08-04T18:31:07.790Z,99917.28
2022-08-04T18:33:39.825Z,99923.09
2022-08-04T18:36:31.492Z,99919.44
2022-08-04T18:38:05.055Z,99919.44
2022-08-04T18:40:30.116Z,99922.56
2022-08-04T18:42:37.406Z,99922.41
2022-08-04T18:44:52.800Z,99933.59
2022-08-04T18:46:56.415Z,99925.22
2022-08-04T18:48:59.307Z,99927.59
2022-08-04T18:51:22.411Z,99921.06
2022-08-04T18:53:26.930Z,99923.03
2022-08-04T18:55:56.941Z,99923.59
2022-08-04T18:58:07.253Z,99925.16
2022-08-04T19:00:12.565Z,99928.09
2022-08-04T19:02:17.873Z,99923.97
2022-08-04T19:04:33.654Z,99926.09
2022-08-04T19:06:41.779Z,99930.88
2022-08-04T19:08:47.390Z,99924.94
2022-08-04T19:10:54.237Z,99934.97
2022-08-04T19:13:02.540Z,99938.22
2022-08-04T19:15:06.155Z,99933.50
2022-08-04T19:17:12.309Z,99943.97
2022-08-04T19:19:17.208Z,99948.03
2022-08-04T19:21:20.056Z,99947.47
2022-08-04T19:24:28.244Z,99949.94
2022-08-04T19:26:14.173Z,99951.59
2022-08-04T19:28:27.254Z,99952.13
2022-08-04T19:30:32.183Z,99947.97
2022-08-04T19:32:35.032Z,99959.00
2022-08-04T19:34:37.865Z,99959.69
2022-08-04T19:36:40.768Z,99954.56
2022-08-04T19:38:50.332Z,99953.69
2022-08-04T19:40:53.940Z,99957.78
2022-08-04T19:43:07.434Z,99960.97
2022-08-04T19:45:15.473Z,99956.75
2022-08-04T19:48:21.965Z,99952.88
2022-08-04T19:50:04.432Z,99958.13
2022-08-04T19:52:04.705Z,99957.28
2022-08-04T19:54:17.056Z,99952.88
2022-08-04T19:56:26.843Z,99961.06
2022-08-04T19:58:29.682Z,99964.16
2022-08-04T20:00:34.466Z,99957.31
2022-08-04T20:02:37.606Z,99960.84
2022-08-04T20:04:40.963Z,99964.63
2022-08-04T20:06:45.421Z,99975.19
2022-08-04T20:08:48.923Z,99980.06
2022-08-04T20:10:54.628Z,99977.38
2022-08-04T20:12:57.845Z,99972.97
2022-08-04T20:15:00.828Z,99967.28
2022-08-04T20:17:10.158Z,99977.38
2022-08-04T20:19:14.200Z,99979.59
2022-08-04T20:21:19.492Z,99980.31
2022-08-04T20:23:47.644Z,99980.81
2022-08-04T20:25:50.113Z,99976.97
2022-08-04T20:27:59.910Z,99985.53
2022-08-04T20:30:14.030Z,99986.25
2022-08-04T20:32:21.854Z,99986.91
2022-08-04T20:34:25.215Z,99989.25
2022-08-04T20:36:28.079Z,99984.63
2022-08-04T20:38:33.505Z,99987.34
2022-08-04T20:40:37.368Z,99987.28
2022-08-04T20:42:40.387Z,99988.00
2022-08-04T20:44:49.044Z,99996.34
2022-08-04T20:46:51.882Z,99998.19
2022-08-04T20:48:54.733Z,100000.75
2022-08-04T20:51:00.173Z,99991.44
2022-08-04T20:53:02.950Z,100003.03
2022-08-04T20:55:19.304Z,100000.59
2022-08-04T20:57:48.312Z,99992.88
2022-08-04T20:59:59.904Z,99989.63
2022-08-04T21:02:05.250Z,99994.63
2022-08-04T21:04:27.960Z,99994.53
2022-08-04T21:06:31.566Z,99998.19
2022-08-04T21:08:34.399Z,99997.34
2022-08-04T21:10:39.799Z,99996.63
2022-08-04T21:12:43.942Z,99996.84
2022-08-04T21:14:52.737Z,99993.88
2022-08-04T21:16:57.522Z,99992.16
2022-08-04T21:19:04.097Z,99994.47
2022-08-04T21:21:07.100Z,99992.88
2022-08-04T21:23:11.746Z,100003.63
2022-08-04T21:25:16.408Z,100004.97
2022-08-04T21:27:19.435Z,100002.31
2022-08-04T21:29:22.446Z,99996.63
2022-08-04T21:31:25.700Z,100005.69
2022-08-04T21:33:50.481Z,100005.94
2022-08-04T21:35:54.739Z,100009.03
2022-08-04T21:38:00.988Z,100000.81
2022-08-04T21:40:15.427Z,100004.50
2022-08-04T21:42:28.120Z,100008.63
2022-08-04T21:44:33.203Z,100004.50
2022-08-04T21:46:44.256Z,100010.72
2022-08-04T21:48:48.762Z,100004.16
2022-08-04T21:50:53.457Z,100010.25
2022-08-04T21:52:59.034Z,100007.09
2022-08-04T21:55:01.951Z,100013.31
2022-08-04T21:57:06.864Z,100007.34
2022-08-04T21:59:14.484Z,100010.41
2022-08-04T22:01:37.750Z,100009.31
2022-08-04T22:03:51.673Z,100013.31
2022-08-04T22:05:55.727Z,100012.97
2022-08-04T22:08:00.099Z,100014.59
2022-08-04T22:10:03.299Z,100010.31
2022-08-04T22:12:06.768Z,100016.66
2022-08-04T22:14:13.380Z,100004.22
2022-08-04T22:16:17.200Z,100015.22
2022-08-04T22:18:20.531Z,100016.84
2022-08-04T22:20:28.405Z,100027.81
2022-08-04T22:22:35.387Z,100022.09
2022-08-04T22:24:41.965Z,100012.53
2022-08-04T22:26:44.802Z,100013.28
2022-08-04T22:28:51.889Z,100013.78
2022-08-04T22:30:54.699Z,100014.31
2022-08-04T22:32:58.012Z,100011.22
2022-08-04T22:35:30.855Z,100009.19
2022-08-04T22:37:35.886Z,100013.06
2022-08-04T22:39:56.291Z,100019.41
2022-08-04T22:42:04.312Z,100012.72
2022-08-04T22:44:10.067Z,100019.66
2022-08-04T22:46:27.252Z,100014.34
2022-08-04T22:48:32.187Z,100019.94
2022-08-04T22:50:35.197Z,100036.66
2022-08-04T22:52:56.034Z,100028.59
2022-08-04T22:54:59.277Z,100031.91
2022-08-04T22:57:03.387Z,100029.72
2022-08-04T22:59:06.184Z,100031.84
2022-08-04T23:01:09.737Z,100035.81
2022-08-04T23:03:36.392Z,100037.22
2022-08-04T23:05:37.377Z,100026.13
2022-08-04T23:07:49.008Z,100027.19
2022-08-04T23:09:53.307Z,100028.03
2022-08-04T23:12:15.202Z,100026.47
2022-08-04T23:14:21.749Z,100044.25
2022-08-04T23:16:25.149Z,100045.31
2022-08-04T23:18:30.949Z,100049.19
2022-08-04T23:20:39.728Z,100048.19
2022-08-04T23:22:43.092Z,100057.38
2022-08-04T23:24:47.725Z,100057.59
2022-08-04T23:27:08.720Z,100071.06
2022-08-04T23:29:14.995Z,100071.63
2022-08-04T23:31:19.162Z,100077.22
2022-08-04T23:33:21.938Z,100083.06
2022-08-04T23:35:26.274Z,100093.72
2022-08-04T23:37:35.416Z,100106.38
2022-08-04T23:40:03.275Z,100111.44
2022-08-04T23:42:01.222Z,100112.88
2022-08-04T23:44:05.347Z,100131.91
2022-08-04T23:46:13.015Z,100141.66
2022-08-04T23:48:19.380Z,100139.28
2022-08-04T23:50:24.030Z,100160.22
2022-08-04T23:52:29.804Z,100166.56
2022-08-04T23:54:33.877Z,100170.31
2022-08-04T23:56:37.862Z,100171.06
2022-08-04T23:58:42.249Z,100178.22
